Time;durP1;ratioP1;P1;durP2;ratioP2;P2;SDS_P1;SDS_P2;PMS_P1;PMS_P2;Temp;Humidity;BMP_temperature;BMP_pressure;BME280_temperature;BME280_humidity;BME280_pressure;Samples;Min_cycle;Max_cycle;Signal;HPM_P1;HPM_P2
2021/08/08 00:00:35;;;;;;;15.33;4.83;;;18.80;74.80;;;;;;5051264;28;20177;-89
2021/08/08 00:03:00;;;;;;;16.80;4.77;;;18.80;75.00;;;;;;5050611;28;20201;-89
2021/08/08 00:05:26;;;;;;;13.87;4.53;;;18.80;75.10;;;;;;5051396;28;20177;-89
2021/08/08 00:07:52;;;;;;;13.07;4.13;;;18.80;74.90;;;;;;5051032;28;20181;-89
2021/08/08 00:10:18;;;;;;;14.70;4.63;;;18.90;74.80;;;;;;5052584;28;20185;-89
2021/08/08 00:12:44;;;;;;;15.97;4.73;;;18.90;74.50;;;;;;5050570;28;20205;-89
2021/08/08 00:15:11;;;;;;;13.93;4.73;;;19.00;74.80;;;;;;5050957;28;20181;-89
2021/08/08 00:17:37;;;;;;;22.17;5.57;;;18.80;74.20;;;;;;5055126;28;21020;-89
2021/08/08 00:20:05;;;;;;;14.53;4.80;;;18.80;74.20;;;;;;5068841;28;20185;-89
2021/08/08 00:22:31;;;;;;;15.85;4.78;;;18.70;74.40;;;;;;5056028;28;20201;-89
2021/08/08 00:24:56;;;;;;;7.80;3.93;;;18.80;74.20;;;;;;5056399;28;20180;-89
2021/08/08 00:27:22;;;;;;;17.80;4.30;;;18.70;74.30;;;;;;5055392;28;20173;-89
2021/08/08 00:29:48;;;;;;;14.90;4.77;;;18.70;74.50;;;;;;5055930;28;20272;-89
2021/08/08 00:32:14;;;;;;;8.00;4.40;;;18.60;74.60;;;;;;5054337;28;20435;-89
2021/08/08 00:34:39;;;;;;;14.10;4.87;;;18.70;74.70;;;;;;5055741;28;20910;-89
2021/08/08 00:37:05;;;;;;;18.33;4.10;;;18.70;74.50;;;;;;5054811;28;20247;-89
2021/08/08 00:39:31;;;;;;;11.68;4.65;;;18.70;74.60;;;;;;5054622;28;20205;-89
2021/08/08 00:41:57;;;;;;;15.00;3.58;;;18.70;74.20;;;;;;5056958;28;20200;-89
2021/08/08 00:44:23;;;;;;;16.90;3.93;;;18.80;74.40;;;;;;5054548;28;20173;-90
2021/08/08 00:46:49;;;;;;;12.30;4.10;;;18.70;74.20;;;;;;5054246;28;20430;-90
2021/08/08 00:49:14;;;;;;;11.10;4.30;;;18.80;74.20;;;;;;5055598;28;20310;-89
2021/08/08 00:51:41;;;;;;;10.53;4.60;;;18.90;73.60;;;;;;5053940;28;20662;-89
2021/08/08 00:54:08;;;;;;;24.02;5.50;;;18.80;73.30;;;;;;5055540;28;20701;-89
2021/08/08 00:56:35;;;;;;;18.23;4.20;;;18.90;73.50;;;;;;5054211;28;20231;-89
2021/08/08 00:59:01;;;;;;;13.60;4.10;;;18.90;73.40;;;;;;5053987;28;20209;-89
2021/08/08 01:01:28;;;;;;;18.08;4.43;;;18.80;73.40;;;;;;5053748;28;20181;-89
2021/08/08 01:03:56;;;;;;;14.02;4.53;;;18.90;73.40;;;;;;5053941;28;20335;-89
2021/08/08 01:06:37;;;;;;;20.10;4.20;;;18.70;73.20;;;;;;5055675;28;20260;-89
2021/08/08 01:09:05;;;;;;;16.92;5.35;;;18.70;73.50;;;;;;5053742;28;20635;-90
2021/08/08 01:11:32;;;;;;;10.60;3.80;;;18.80;73.30;;;;;;5053414;28;20196;-90
2021/08/08 01:13:59;;;;;;;12.82;4.05;;;18.80;72.90;;;;;;5053996;28;20184;-89
2021/08/08 01:16:26;;;;;;;15.48;4.03;;;18.80;72.80;;;;;;5061717;28;20557;-89
2021/08/08 01:18:53;;;;;;;10.05;4.15;;;18.70;72.90;;;;;;5056554;28;20223;-89
2021/08/08 01:21:22;;;;;;;17.70;4.85;;;18.80;72.70;;;;;;5053166;28;20246;-89
2021/08/08 01:23:57;;;;;;;12.68;4.32;;;18.80;72.60;;;;;;5054722;28;20543;-89
2021/08/08 01:26:25;;;;;;;9.48;3.78;;;18.90;73.00;;;;;;5054276;28;20173;-89
2021/08/08 01:28:53;;;;;;;15.38;4.25;;;18.80;72.10;;;;;;5053592;28;20181;-89
2021/08/08 01:31:20;;;;;;;15.20;4.80;;;18.90;72.30;;;;;;5054294;28;20189;-90
2021/08/08 01:33:46;;;;;;;7.70;3.88;;;18.90;72.70;;;;;;5053839;28;20586;-89
2021/08/08 01:36:12;;;;;;;24.50;4.53;;;18.80;72.00;;;;;;5053962;28;20197;-89
2021/08/08 01:38:42;;;;;;;13.00;3.30;;;18.70;72.40;;;;;;5053215;28;20233;-89
2021/08/08 01:41:12;;;;;;;18.63;4.75;;;18.70;72.20;;;;;;5053353;28;20519;-89
2021/08/08 01:43:43;;;;;;;16.40;4.78;;;18.70;72.40;;;;;;5053787;28;20687;-90
2021/08/08 01:46:11;;;;;;;18.83;4.50;;;18.80;72.40;;;;;;5054533;28;20177;-89
2021/08/08 01:48:44;;;;;;;20.60;5.15;;;18.60;72.40;;;;;;5053662;28;20192;-89
2021/08/08 01:51:10;;;;;;;11.43;3.65;;;18.80;72.30;;;;;;5052882;28;20235;-91
2021/08/08 01:53:36;;;;;;;16.90;4.68;;;18.80;72.00;;;;;;5052827;28;20201;-90
2021/08/08 01:56:02;;;;;;;20.75;4.32;;;18.80;72.10;;;;;;5054691;28;20184;-89
2021/08/08 01:58:29;;;;;;;17.30;3.85;;;18.70;72.20;;;;;;5053150;28;20306;-89
2021/08/08 02:00:56;;;;;;;11.43;3.50;;;18.80;72.10;;;;;;5053661;28;20629;-90
2021/08/08 02:03:31;;;;;;;8.75;4.30;;;18.80;71.80;;;;;;5052580;28;20486;-89
2021/08/08 02:05:56;;;;;;;13.13;4.60;;;18.80;72.10;;;;;;5052853;28;20173;-89
2021/08/08 02:08:22;;;;;;;12.60;4.30;;;18.70;72.30;;;;;;5053045;28;20276;-89
2021/08/08 02:10:48;;;;;;;11.23;3.90;;;18.80;72.20;;;;;;5055777;28;20207;-89
2021/08/08 02:13:14;;;;;;;10.90;3.83;;;18.90;71.90;;;;;;5064362;28;20201;-89
2021/08/08 02:15:39;;;;;;;7.90;4.03;;;18.70;71.90;;;;;;5052496;28;20723;-89
2021/08/08 02:18:05;;;;;;;8.53;4.07;;;18.60;72.10;;;;;;5052641;28;20197;-90
2021/08/08 02:20:31;;;;;;;13.00;4.50;;;18.70;72.40;;;;;;5052668;28;20462;-89
2021/08/08 02:22:57;;;;;;;12.27;4.23;;;18.70;72.10;;;;;;5052279;28;20211;-89
2021/08/08 02:25:22;;;;;;;20.33;4.27;;;18.70;72.10;;;;;;5055559;28;20199;-89
2021/08/08 02:27:48;;;;;;;8.73;3.90;;;18.80;71.80;;;;;;5057808;28;20177;-90
2021/08/08 02:30:14;;;;;;;15.60;5.03;;;18.60;71.70;;;;;;5053723;28;20188;-89
2021/08/08 02:32:39;;;;;;;6.57;3.03;;;18.50;72.10;;;;;;5056283;28;20660;-89
2021/08/08 02:35:06;;;;;;;15.27;4.10;;;18.60;72.20;;;;;;5063045;28;20196;-89
2021/08/08 02:37:31;;;;;;;18.27;4.40;;;18.70;72.10;;;;;;5061742;28;20296;-89
2021/08/08 02:39:57;;;;;;;13.43;4.10;;;18.60;72.10;;;;;;5053787;28;20228;-89
2021/08/08 02:42:22;;;;;;;12.10;3.43;;;18.60;72.30;;;;;;5051696;28;20262;-89
2021/08/08 02:44:48;;;;;;;13.10;4.03;;;18.80;71.90;;;;;;5052026;28;20247;-89
2021/08/08 02:47:14;;;;;;;12.83;5.83;;;18.80;71.30;;;;;;5052081;28;20177;-89
2021/08/08 02:49:40;;;;;;;11.27;3.63;;;18.70;71.50;;;;;;5052030;28;20200;-89
2021/08/08 02:52:06;;;;;;;8.50;3.77;;;18.60;71.60;;;;;;5051887;28;20254;-89
2021/08/08 02:54:32;;;;;;;15.48;3.70;;;18.70;72.60;;;;;;5052007;28;20188;-90
2021/08/08 02:56:58;;;;;;;11.63;3.93;;;18.60;71.60;;;;;;5051740;28;20185;-90
2021/08/08 02:59:24;;;;;;;17.70;4.87;;;18.70;71.60;;;;;;5052088;28;20789;-90
2021/08/08 03:01:50;;;;;;;9.77;3.67;;;18.70;71.20;;;;;;5051314;28;20176;-89
2021/08/08 03:04:15;;;;;;;9.90;3.90;;;18.60;71.30;;;;;;5052812;28;20927;-89
2021/08/08 03:06:45;;;;;;;9.33;3.20;;;18.50;71.50;;;;;;5055076;28;20586;-89
2021/08/08 03:09:11;;;;;;;18.45;5.35;;;18.50;71.80;;;;;;5071188;28;20435;-89
2021/08/08 03:11:37;;;;;;;20.75;4.55;;;18.70;71.50;;;;;;5059234;28;20185;-89
2021/08/08 03:14:03;;;;;;;11.37;3.80;;;18.70;71.10;;;;;;5060345;28;20205;-89
2021/08/08 03:16:29;;;;;;;10.67;4.80;;;18.60;70.80;;;;;;5060092;28;20452;-89
2021/08/08 03:18:54;;;;;;;14.37;4.27;;;18.60;71.10;;;;;;5060520;28;20715;-89
2021/08/08 03:21:20;;;;;;;15.57;4.63;;;18.50;71.50;;;;;;5051380;28;20169;-89
2021/08/08 03:23:46;;;;;;;9.47;3.93;;;18.40;71.50;;;;;;5051803;28;20193;-89
2021/08/08 03:26:12;;;;;;;22.23;4.33;;;18.40;71.70;;;;;;5051793;28;20653;-90
2021/08/08 03:28:37;;;;;;;20.43;5.17;;;18.30;71.90;;;;;;5052994;28;20215;-89
2021/08/08 03:31:03;;;;;;;24.40;5.17;;;18.50;71.90;;;;;;5052102;28;20614;-90
2021/08/08 03:33:28;;;;;;;11.23;4.17;;;18.60;71.60;;;;;;5051351;28;20205;-89
2021/08/08 03:35:54;;;;;;;12.20;4.10;;;18.70;71.30;;;;;;5052206;28;20635;-89
2021/08/08 03:38:20;;;;;;;13.10;3.50;;;18.50;71.50;;;;;;5053008;28;20636;-90
2021/08/08 03:40:46;;;;;;;12.33;4.70;;;18.70;71.60;;;;;;5051253;28;20184;-89
2021/08/08 03:43:11;;;;;;;10.93;4.00;;;18.50;71.10;;;;;;5051726;28;20196;-89
2021/08/08 03:45:37;;;;;;;12.43;4.60;;;18.50;71.50;;;;;;5051224;28;20252;-90
2021/08/08 03:48:03;;;;;;;11.93;4.33;;;18.50;71.80;;;;;;5050907;28;20196;-90
2021/08/08 03:50:28;;;;;;;11.50;3.90;;;18.30;71.80;;;;;;5054043;28;20658;-89
2021/08/08 03:52:54;;;;;;;16.87;4.40;;;18.30;72.10;;;;;;5054891;28;20204;-89
2021/08/08 03:55:20;;;;;;;12.70;4.17;;;18.40;72.20;;;;;;5056228;28;20191;-90
2021/08/08 03:57:46;;;;;;;7.57;3.90;;;18.50;71.80;;;;;;5056365;28;20209;-89
2021/08/08 04:00:12;;;;;;;13.17;4.50;;;18.40;72.60;;;;;;5055165;28;20227;-89
2021/08/08 04:02:37;;;;;;;16.42;4.50;;;18.30;72.00;;;;;;5057124;28;20197;-90
2021/08/08 04:05:03;;;;;;;9.03;4.13;;;18.40;71.70;;;;;;5068069;28;20231;-90
2021/08/08 04:07:29;;;;;;;15.88;4.25;;;18.40;71.70;;;;;;5055628;28;20523;-90
2021/08/08 04:09:55;;;;;;;11.70;5.70;;;18.50;71.80;;;;;;5057666;28;20180;-90
2021/08/08 04:12:20;;;;;;;13.27;4.40;;;18.40;71.60;;;;;;5054330;28;20189;-89
2021/08/08 04:14:46;;;;;;;16.30;3.90;;;18.50;71.80;;;;;;5054833;28;20185;-90
2021/08/08 04:17:14;;;;;;;17.03;4.37;;;18.40;71.60;;;;;;5054743;28;20212;-89
2021/08/08 04:19:40;;;;;;;19.05;3.85;;;18.40;71.70;;;;;;5054860;28;20184;-90
2021/08/08 04:22:05;;;;;;;17.17;4.47;;;18.50;71.50;;;;;;5057721;28;20616;-90
2021/08/08 04:24:31;;;;;;;11.33;3.53;;;18.40;71.60;;;;;;5054618;28;20263;-89
2021/08/08 04:26:57;;;;;;;11.50;3.90;;;18.30;71.50;;;;;;5055344;28;20212;-89
2021/08/08 04:29:22;;;;;;;11.23;3.57;;;18.30;71.80;;;;;;5054770;28;20173;-90
2021/08/08 04:31:48;;;;;;;11.93;4.50;;;18.40;71.70;;;;;;5054099;28;20177;-90
2021/08/08 04:34:14;;;;;;;12.83;4.07;;;18.40;71.50;;;;;;5054735;28;20174;-90
2021/08/08 04:36:40;;;;;;;15.93;4.30;;;18.40;71.40;;;;;;5054539;28;20173;-89
2021/08/08 04:39:05;;;;;;;13.67;4.07;;;18.50;71.30;;;;;;5054420;28;20989;-90
2021/08/08 04:41:31;;;;;;;11.10;4.80;;;18.30;71.10;;;;;;5056191;28;20185;-89
2021/08/08 04:43:57;;;;;;;18.53;4.40;;;18.20;71.30;;;;;;5055777;28;20309;-89
2021/08/08 04:46:23;;;;;;;15.53;4.30;;;18.40;71.60;;;;;;5054640;28;20404;-90
2021/08/08 04:48:48;;;;;;;11.20;4.67;;;18.40;71.20;;;;;;5054615;28;20794;-89
2021/08/08 04:51:14;;;;;;;11.57;4.50;;;18.50;71.20;;;;;;5054123;28;20599;-90
2021/08/08 04:53:40;;;;;;;12.80;4.53;;;18.50;70.60;;;;;;5054706;28;20199;-89
2021/08/08 04:56:05;;;;;;;8.73;3.63;;;18.50;70.60;;;;;;5054184;28;20267;-90
2021/08/08 04:58:31;;;;;;;11.97;3.93;;;18.40;70.50;;;;;;5055111;28;20208;-90
2021/08/08 05:00:57;;;;;;;19.10;3.93;;;18.50;70.40;;;;;;5068416;28;20628;-89
2021/08/08 05:03:22;;;;;;;15.47;3.77;;;18.60;70.10;;;;;;5054089;28;20714;-89
2021/08/08 05:05:48;;;;;;;25.63;5.43;;;18.50;70.10;;;;;;5054964;28;20429;-89
2021/08/08 05:08:14;;;;;;;11.70;4.20;;;18.50;70.10;;;;;;5057041;28;20172;-89
2021/08/08 05:10:39;;;;;;;9.40;4.30;;;18.50;70.10;;;;;;5054747;28;20173;-89
2021/08/08 05:13:05;;;;;;;15.33;4.30;;;18.50;70.00;;;;;;5053747;28;20194;-89
2021/08/08 05:15:31;;;;;;;18.80;4.53;;;18.40;69.80;;;;;;5054852;28;20189;-89
2021/08/08 05:17:57;;;;;;;23.73;4.70;;;18.50;70.10;;;;;;5055311;28;20213;-89
2021/08/08 05:20:23;;;;;;;15.63;3.93;;;18.50;69.80;;;;;;5056577;28;20254;-89
2021/08/08 05:22:49;;;;;;;13.67;3.90;;;18.60;69.50;;;;;;5055242;28;20225;-90
2021/08/08 05:25:15;;;;;;;17.47;3.70;;;18.70;69.50;;;;;;5054585;28;20308;-90
2021/08/08 05:27:40;;;;;;;9.47;3.87;;;18.80;68.90;;;;;;5055034;28;20434;-89
2021/08/08 05:30:09;;;;;;;16.67;4.93;;;18.90;68.40;;;;;;5055536;28;20427;-89
2021/08/08 05:32:35;;;;;;;15.13;4.45;;;18.80;68.10;;;;;;5055688;28;20197;-89
2021/08/08 05:35:01;;;;;;;8.88;3.40;;;18.90;68.10;;;;;;5055477;28;20649;-89
2021/08/08 05:37:27;;;;;;;13.45;3.60;;;18.90;68.00;;;;;;5055414;28;20664;-89
2021/08/08 05:39:53;;;;;;;10.10;4.97;;;18.90;67.80;;;;;;5053454;28;20188;-89
2021/08/08 05:42:19;;;;;;;12.67;3.20;;;18.80;67.70;;;;;;5053151;28;20201;-89
2021/08/08 05:44:45;;;;;;;14.73;4.50;;;19.00;67.80;;;;;;5053382;28;20268;-89
2021/08/08 05:47:11;;;;;;;21.55;4.70;;;19.20;67.00;;;;;;5052890;28;20227;-90
2021/08/08 05:49:37;;;;;;;8.50;4.40;;;19.30;66.30;;;;;;5054289;28;20208;-90
2021/08/08 05:52:05;;;;;;;20.07;4.70;;;19.40;65.60;;;;;;5052634;28;20440;-89
2021/08/08 05:54:31;;;;;;;19.70;4.03;;;19.50;65.80;;;;;;5052988;28;20499;-89
2021/08/08 05:56:57;;;;;;;14.40;4.03;;;19.50;65.40;;;;;;5067222;28;20311;-89
2021/08/08 05:59:23;;;;;;;10.37;4.73;;;19.30;65.40;;;;;;5053134;28;20491;-90
2021/08/08 06:01:49;;;;;;;17.90;4.35;;;19.40;65.40;;;;;;5053149;28;20454;-90
2021/08/08 06:04:15;;;;;;;4.90;3.20;;;19.50;65.60;;;;;;5053416;28;20231;-90
2021/08/08 06:06:41;;;;;;;11.80;4.07;;;19.80;64.70;;;;;;5053527;28;20169;-89
2021/08/08 06:09:06;;;;;;;14.00;3.23;;;19.80;64.30;;;;;;5054789;28;20177;-90
2021/08/08 06:11:32;;;;;;;10.53;3.97;;;19.90;64.10;;;;;;5052112;28;20192;-89
2021/08/08 06:13:58;;;;;;;15.20;4.38;;;20.30;63.30;;;;;;5052766;28;20481;-90
2021/08/08 06:16:24;;;;;;;9.60;3.33;;;20.40;62.40;;;;;;5053295;28;20229;-90
2021/08/08 06:18:49;;;;;;;8.70;3.40;;;20.50;62.00;;;;;;5052877;28;20197;-89
2021/08/08 06:21:15;;;;;;;11.43;4.87;;;20.70;61.50;;;;;;5052778;28;20169;-90
2021/08/08 06:23:41;;;;;;;15.83;4.40;;;20.90;61.10;;;;;;5052782;28;20292;-90
2021/08/08 06:26:07;;;;;;;12.93;5.10;;;21.20;61.10;;;;;;5052575;28;20644;-89
2021/08/08 06:28:32;;;;;;;8.60;3.03;;;21.40;59.20;;;;;;5055503;28;20628;-89
2021/08/08 06:30:58;;;;;;;9.80;3.50;;;21.80;58.10;;;;;;5057446;28;20180;-90
2021/08/08 06:33:24;;;;;;;11.00;3.40;;;21.70;57.30;;;;;;5054273;28;20207;-89
2021/08/08 06:35:51;;;;;;;11.13;3.70;;;21.70;57.20;;;;;;5053732;28;20181;-89
2021/08/08 06:38:17;;;;;;;11.95;3.83;;;21.50;57.40;;;;;;5052464;28;20255;-89
2021/08/08 06:40:43;;;;;;;17.23;4.70;;;21.70;57.60;;;;;;5053355;28;20636;-89
2021/08/08 06:43:09;;;;;;;13.17;3.60;;;21.40;57.10;;;;;;5052226;28;20556;-90
2021/08/08 06:45:35;;;;;;;19.53;4.97;;;21.20;57.70;;;;;;5052375;28;20177;-90
2021/08/08 06:48:01;;;;;;;13.77;4.10;;;21.40;58.00;;;;;;5052910;28;20640;-90
2021/08/08 06:50:30;;;;;;;8.03;3.50;;;21.50;57.60;;;;;;5052496;28;20188;-90
2021/08/08 06:52:57;;;;;;;12.37;4.43;;;21.90;57.00;;;;;;5067089;28;20485;-89
2021/08/08 06:55:23;;;;;;;10.60;3.80;;;22.00;56.40;;;;;;5052858;28;20875;-89
2021/08/08 06:57:49;;;;;;;13.03;4.10;;;22.20;56.10;;;;;;5053347;28;20467;-90
2021/08/08 07:00:15;;;;;;;17.47;3.53;;;22.30;55.20;;;;;;5052876;28;20469;-90
2021/08/08 07:02:41;;;;;;;8.80;3.60;;;22.20;55.50;;;;;;5051918;28;20617;-90
2021/08/08 07:05:07;;;;;;;8.43;3.97;;;22.20;55.40;;;;;;5052892;28;20636;-90
2021/08/08 07:07:33;;;;;;;14.87;3.13;;;22.40;55.10;;;;;;5055828;28;20585;-90
2021/08/08 07:09:59;;;;;;;8.70;2.70;;;22.20;55.10;;;;;;5052783;28;20451;-90
2021/08/08 07:12:25;;;;;;;12.40;3.70;;;22.00;55.50;;;;;;5054413;28;20802;-90
2021/08/08 07:14:51;;;;;;;16.50;3.60;;;22.00;55.80;;;;;;5053748;28;20449;-90
2021/08/08 07:17:17;;;;;;;9.23;3.83;;;21.90;55.80;;;;;;5053504;28;20469;-90
2021/08/08 07:19:43;;;;;;;12.90;4.40;;;21.40;56.40;;;;;;5055273;28;20169;-90
2021/08/08 07:22:09;;;;;;;7.93;3.40;;;21.30;57.20;;;;;;5056193;28;20221;-90
2021/08/08 07:24:35;;;;;;;11.20;4.43;;;21.40;57.50;;;;;;5056166;28;20419;-90
2021/08/08 07:27:01;;;;;;;10.25;3.97;;;21.20;57.60;;;;;;5056253;28;20235;-90
2021/08/08 07:29:27;;;;;;;13.60;4.03;;;20.90;58.00;;;;;;5059031;28;20173;-90
2021/08/08 07:31:54;;;;;;;13.43;3.70;;;21.00;58.40;;;;;;5058805;28;20279;-90
2021/08/08 07:34:21;;;;;;;11.18;3.50;;;21.00;58.20;;;;;;5062466;28;20267;-89
2021/08/08 07:36:47;;;;;;;12.35;4.50;;;20.90;58.60;;;;;;5060903;28;20165;-89
2021/08/08 07:39:12;;;;;;;8.60;4.43;;;21.00;58.70;;;;;;5061996;28;20258;-89
2021/08/08 07:41:38;;;;;;;8.30;3.50;;;21.10;58.30;;;;;;5061384;28;20475;-90
2021/08/08 07:44:04;;;;;;;10.17;3.33;;;21.40;58.80;;;;;;5052245;28;20326;-90
2021/08/08 07:46:30;;;;;;;6.30;3.27;;;21.50;57.30;;;;;;5052166;28;20181;-89
2021/08/08 07:48:56;;;;;;;14.23;4.67;;;21.50;57.10;;;;;;5071797;28;20435;-89
2021/08/08 07:51:21;;;;;;;10.75;3.70;;;21.50;57.10;;;;;;5060706;28;20699;-90
2021/08/08 07:53:47;;;;;;;7.40;3.40;;;21.60;57.10;;;;;;5054036;28;20247;-90
2021/08/08 07:56:13;;;;;;;10.27;3.20;;;21.60;56.90;;;;;;5052374;28;20275;-90
2021/08/08 07:58:39;;;;;;;14.03;3.73;;;21.60;56.60;;;;;;5053909;28;20209;-90
2021/08/08 08:01:05;;;;;;;7.70;3.90;;;21.50;56.60;;;;;;5052093;28;20519;-90
2021/08/08 08:03:31;;;;;;;18.30;4.37;;;21.40;57.00;;;;;;5054950;28;20228;-89
2021/08/08 08:05:57;;;;;;;12.83;3.40;;;21.50;57.40;;;;;;5054338;28;20629;-90
2021/08/08 08:08:23;;;;;;;6.18;3.05;;;21.80;56.80;;;;;;5053862;28;20187;-90
2021/08/08 08:10:49;;;;;;;12.60;3.87;;;21.90;55.90;;;;;;5056091;28;20201;-90
2021/08/08 08:13:14;;;;;;;9.53;3.60;;;21.80;55.60;;;;;;5070378;28;20443;-90
2021/08/08 08:15:40;;;;;;;8.67;4.07;;;21.60;55.60;;;;;;5069371;28;20192;-90
2021/08/08 08:18:06;;;;;;;13.20;4.13;;;21.50;56.10;;;;;;5066454;28;20564;-90
2021/08/08 08:20:32;;;;;;;9.80;3.63;;;21.20;56.50;;;;;;5056646;28;20173;-90
2021/08/08 08:22:58;;;;;;;11.53;4.10;;;21.40;57.00;;;;;;5055421;28;20509;-90
2021/08/08 08:25:24;;;;;;;6.47;2.97;;;21.40;57.10;;;;;;5052046;28;20495;-90
2021/08/08 08:27:51;;;;;;;10.47;3.63;;;21.60;56.90;;;;;;5056299;28;20773;-90
2021/08/08 08:30:17;;;;;;;11.77;4.17;;;21.70;56.40;;;;;;5051863;28;20570;-90
2021/08/08 08:32:43;;;;;;;11.77;4.00;;;21.60;56.20;;;;;;5050880;28;20454;-90
2021/08/08 08:35:10;;;;;;;9.30;3.73;;;21.60;56.20;;;;;;5051794;28;20835;-90
2021/08/08 08:37:35;;;;;;;6.30;3.22;;;21.70;56.90;;;;;;5054812;28;20467;-90
2021/08/08 08:40:03;;;;;;;14.03;3.50;;;21.70;57.50;;;;;;5055697;28;20187;-90
2021/08/08 08:42:30;;;;;;;10.07;4.40;;;21.60;56.00;;;;;;5056965;28;20629;-90
2021/08/08 08:44:57;;;;;;;7.50;3.23;;;21.70;56.30;;;;;;5076233;28;20454;-90
2021/08/08 08:47:24;;;;;;;10.97;3.63;;;21.90;55.90;;;;;;5059365;28;20416;-90
2021/08/08 08:50:10;;;;;;;20.92;4.13;;;21.80;55.30;;;;;;5058799;28;20910;-90
2021/08/08 08:52:37;;;;;;;7.70;2.70;;;21.60;55.40;;;;;;5074058;28;20322;-90
2021/08/08 08:55:03;;;;;;;12.13;3.40;;;21.40;56.10;;;;;;5073637;28;20420;-90
2021/08/08 08:57:30;;;;;;;9.68;3.67;;;21.50;56.30;;;;;;5073678;28;20923;-90
2021/08/08 08:59:59;;;;;;;10.13;2.87;;;21.60;56.30;;;;;;5058129;28;20291;-90
2021/08/08 09:02:25;;;;;;;7.03;2.70;;;21.70;56.30;;;;;;5054846;28;20444;-89
2021/08/08 09:04:51;;;;;;;13.27;3.43;;;21.80;56.30;;;;;;5054422;28;20525;-90
2021/08/08 09:07:16;;;;;;;6.50;2.80;;;22.00;55.50;;;;;;5054825;28;20924;-90
2021/08/08 09:09:42;;;;;;;11.93;3.40;;;22.30;55.40;;;;;;5054512;28;20419;-90
2021/08/08 09:12:08;;;;;;;6.50;3.70;;;22.00;55.10;;;;;;5053690;28;20201;-90
2021/08/08 09:14:36;;;;;;;8.13;3.17;;;22.00;55.20;;;;;;5054353;28;20196;-90
2021/08/08 09:17:03;;;;;;;10.50;3.50;;;22.00;55.30;;;;;;5053732;28;20580;-90
2021/08/08 09:19:31;;;;;;;5.67;3.00;;;22.30;54.80;;;;;;5054015;28;20415;-90
2021/08/08 09:21:58;;;;;;;8.30;3.60;;;22.20;54.60;;;;;;5053783;28;20515;-90
2021/08/08 09:24:35;;;;;;;16.30;3.50;;;22.40;53.80;;;;;;5054215;28;20414;-90
2021/08/08 09:27:09;;;;;;;6.43;3.23;;;22.40;53.40;;;;;;5053595;28;20419;-90
2021/08/08 09:29:36;;;;;;;9.23;3.30;;;22.30;53.70;;;;;;5053725;28;20506;-90
2021/08/08 09:32:04;;;;;;;7.90;3.67;;;22.40;53.90;;;;;;5053283;28;20436;-90
2021/08/08 09:34:31;;;;;;;6.00;2.63;;;22.40;53.40;;;;;;5053725;28;20455;-90
2021/08/08 09:37:01;;;;;;;6.47;2.60;;;22.50;53.70;;;;;;5053444;28;20419;-90
2021/08/08 09:39:48;;;;;;;13.67;3.57;;;22.50;53.00;;;;;;5060904;28;20447;-90
2021/08/08 09:42:17;;;;;;;10.90;3.30;;;22.70;52.80;;;;;;5054705;28;20440;-90
2021/08/08 09:44:58;;;;;;;5.10;2.70;;;22.90;52.70;;;;;;5053602;28;20418;-90
2021/08/08 09:47:48;;;;;;;7.17;2.43;;;22.90;52.40;;;;;;5053322;28;20420;-90
2021/08/08 09:50:16;;;;;;;13.93;3.33;;;22.90;52.20;;;;;;5059018;28;20558;-90
2021/08/08 09:52:53;;;;;;;5.53;2.60;;;23.20;51.90;;;;;;5056767;28;20977;-90
2021/08/08 09:55:25;;;;;;;11.93;3.80;;;23.00;52.00;;;;;;5053293;28;20435;-90
2021/08/08 09:57:51;;;;;;;8.77;3.87;;;22.60;52.40;;;;;;5054095;28;20558;-90
2021/08/08 10:00:22;;;;;;;9.20;3.30;;;22.50;54.90;;;;;;5055052;28;20412;-90
2021/08/08 10:02:48;;;;;;;8.47;3.60;;;22.30;57.00;;;;;;5052740;28;20442;-90
2021/08/08 10:05:14;;;;;;;10.07;3.60;;;22.00;58.90;;;;;;5053166;28;20416;-90
2021/08/08 10:07:40;;;;;;;5.73;2.30;;;21.70;59.80;;;;;;5053630;28;20510;-90
2021/08/08 10:10:07;;;;;;;11.67;3.57;;;21.70;59.90;;;;;;5053641;28;20185;-90
2021/08/08 10:12:33;;;;;;;5.93;3.73;;;21.80;60.30;;;;;;5052862;28;20526;-90
2021/08/08 10:14:59;;;;;;;5.50;3.03;;;22.20;58.20;;;;;;5053124;28;20454;-90
2021/08/08 10:17:26;;;;;;;8.27;3.23;;;22.50;57.90;;;;;;5053275;28;20255;-91
2021/08/08 10:19:53;;;;;;;7.17;3.33;;;22.60;55.90;;;;;;5052615;28;20412;-91
2021/08/08 10:22:23;;;;;;;6.03;2.87;;;22.60;53.30;;;;;;5052460;28;20435;-91
2021/08/08 10:24:52;;;;;;;5.80;3.57;;;22.50;52.80;;;;;;5053756;28;20446;-91
2021/08/08 10:27:21;;;;;;;8.30;2.90;;;22.40;52.50;;;;;;5053500;28;20451;-91
2021/08/08 10:29:49;;;;;;;6.77;2.80;;;22.40;53.40;;;;;;5054038;28;20416;-91
2021/08/08 10:32:15;;;;;;;9.67;2.87;;;22.60;53.10;;;;;;5052778;28;20527;-91
2021/08/08 10:34:41;;;;;;;9.30;3.23;;;22.50;53.20;;;;;;5053514;28;20495;-91
2021/08/08 10:37:12;;;;;;;7.13;2.70;;;22.50;53.40;;;;;;5065450;28;20197;-91
2021/08/08 10:39:41;;;;;;;4.30;2.83;;;22.60;53.60;;;;;;5053826;28;20169;-91
2021/08/08 10:42:07;;;;;;;10.17;2.90;;;22.60;52.90;;;;;;5053104;28;20443;-91
2021/08/08 10:44:47;;;;;;;7.03;3.03;;;22.60;52.50;;;;;;5052456;28;20502;-91
2021/08/08 10:47:25;;;;;;;5.23;2.00;;;22.90;52.50;;;;;;5052926;28;20465;-91
2021/08/08 10:49:50;;;;;;;7.33;2.87;;;23.20;50.40;;;;;;5052660;28;20408;-91
2021/08/08 10:52:16;;;;;;;9.50;3.00;;;23.40;49.80;;;;;;5051944;28;20446;-91
2021/08/08 10:54:44;;;;;;;6.13;2.93;;;23.20;49.20;;;;;;5052226;28;20275;-91
2021/08/08 10:57:17;;;;;;;8.77;2.50;;;23.60;49.30;;;;;;5051912;28;20280;-91
2021/08/08 10:59:47;;;;;;;3.80;2.60;;;23.50;49.00;;;;;;5051579;28;20426;-91
2021/08/08 11:02:16;;;;;;;9.80;2.50;;;23.70;49.10;;;;;;5052560;28;20454;-91
2021/08/08 11:04:42;;;;;;;5.03;2.83;;;23.60;47.50;;;;;;5052062;28;20426;-91
2021/08/08 11:07:09;;;;;;;3.90;2.10;;;23.60;47.80;;;;;;5051938;28;20420;-91
2021/08/08 11:09:37;;;;;;;5.27;2.37;;;23.60;48.00;;;;;;5051802;28;20998;-91
2021/08/08 11:12:04;;;;;;;9.27;2.30;;;23.80;47.70;;;;;;5051440;28;20432;-91
2021/08/08 11:14:31;;;;;;;8.73;2.77;;;23.90;47.00;;;;;;5053480;28;20427;-91
2021/08/08 11:17:08;;;;;;;4.97;1.90;;;24.00;47.00;;;;;;5052374;28;20435;-91
2021/08/08 11:19:35;;;;;;;8.20;2.10;;;23.80;47.10;;;;;;5052460;28;20443;-91
2021/08/08 11:22:07;;;;;;;10.97;2.40;;;23.70;47.40;;;;;;5051820;28;20474;-91
2021/08/08 11:24:32;;;;;;;4.97;2.53;;;23.80;47.20;;;;;;5052380;28;20418;-91
2021/08/08 11:26:58;;;;;;;4.40;3.03;;;23.80;47.30;;;;;;5052926;28;20412;-91
2021/08/08 11:29:24;;;;;;;2.30;2.10;;;23.70;47.60;;;;;;5051831;28;20189;-91
2021/08/08 11:31:57;;;;;;;5.20;2.53;;;23.80;46.90;;;;;;5064301;28;20402;-90
2021/08/08 11:34:24;;;;;;;5.47;2.00;;;23.40;47.20;;;;;;5053202;28;20546;-91
2021/08/08 11:36:50;;;;;;;3.70;2.10;;;23.20;47.80;;;;;;5052078;28;20419;-91
2021/08/08 11:39:16;;;;;;;7.70;2.67;;;23.20;48.20;;;;;;5052064;28;20463;-91
2021/08/08 11:41:42;;;;;;;9.67;2.97;;;23.20;48.70;;;;;;5051518;28;20411;-92
2021/08/08 11:44:15;;;;;;;10.23;2.50;;;23.10;48.90;;;;;;5052661;28;20498;-91
2021/08/08 11:46:50;;;;;;;4.43;2.57;;;23.00;49.10;;;;;;5052046;28;20422;-91
2021/08/08 11:49:21;;;;;;;7.00;2.30;;;23.10;49.50;;;;;;5051929;28;20478;-91
2021/08/08 11:51:58;;;;;;;6.17;2.20;;;23.20;48.40;;;;;;5052239;28;20420;-91
2021/08/08 11:54:26;;;;;;;3.87;2.60;;;23.30;47.60;;;;;;5051664;28;20934;-91
2021/08/08 11:56:52;;;;;;;7.27;2.50;;;23.20;47.00;;;;;;5052203;28;20424;-91
2021/08/08 11:59:28;;;;;;;5.97;2.50;;;23.30;47.20;;;;;;5051495;28;20471;-91
2021/08/08 12:02:03;;;;;;;9.87;1.70;;;23.10;47.10;;;;;;5051559;28;20956;-91
2021/08/08 12:04:29;;;;;;;1.63;1.13;;;22.50;48.10;;;;;;5051907;28;20940;-91
2021/08/08 12:06:56;;;;;;;2.00;1.17;;;21.80;52.70;;;;;;5051449;28;20431;-91
2021/08/08 12:09:22;;;;;;;2.90;1.43;;;21.20;55.10;;;;;;5053459;28;20420;-91
2021/08/08 12:11:51;;;;;;;2.53;1.30;;;20.90;58.40;;;;;;5037583;28;20427;-91
2021/08/08 12:14:32;;;;;;;3.58;3.25;;;20.60;60.60;;;;;;5055917;28;20426;-91
2021/08/08 12:17:13;;;;;;;3.28;1.80;;;20.20;62.30;;;;;;5055821;28;20197;-91
2021/08/08 12:19:42;;;;;;;5.60;1.55;;;20.10;63.20;;;;;;5055763;28;20174;-91
2021/08/08 12:22:09;;;;;;;3.00;1.30;;;19.80;63.90;;;;;;5055172;28;20201;-91
2021/08/08 12:24:44;;;;;;;3.55;1.85;;;19.70;65.60;;;;;;5055268;28;20180;-91
2021/08/08 12:27:13;;;;;;;3.53;1.75;;;19.70;66.50;;;;;;5057197;28;20647;-90
2021/08/08 12:29:40;;;;;;;3.60;1.65;;;19.80;66.60;;;;;;5063313;28;20232;-91
2021/08/08 12:32:13;;;;;;;3.17;1.70;;;19.70;67.00;;;;;;5055544;28;20197;-91
2021/08/08 12:34:41;;;;;;;2.95;1.52;;;19.90;67.90;;;;;;5056300;28;20272;-91
2021/08/08 12:37:08;;;;;;;5.47;2.25;;;20.40;68.00;;;;;;5055679;28;20638;-91
2021/08/08 12:39:36;;;;;;;2.42;2.00;;;20.60;66.40;;;;;;5057603;28;20181;-91